Time;durP1;ratioP1;P1;durP2;ratioP2;P2;SDS_P1;SDS_P2;PMS_P1;PMS_P2;Temp;Humidity;BMP_temperature;BMP_pressure;BME280_temperature;BME280_humidity;BME280_pressure;Samples;Min_cycle;Max_cycle;Signal;HPM_P1;HPM_P2
2021/12/04 00:01:25;;;;;;;8.80;4.45;;;;;;;2.81;100.00;92535.38;5095483;28;20054;-83
2021/12/04 00:03:53;;;;;;;4.57;3.17;;;;;;;2.83;100.00;92542.81;5095465;28;20059;-83
2021/12/04 00:06:25;;;;;;;5.68;3.10;;;;;;;2.77;100.00;92542.56;5095373;28;20395;-82
2021/12/04 00:08:55;;;;;;;4.55;2.67;;;;;;;2.31;100.00;92497.94;5095396;28;20058;-83
2021/12/04 00:11:22;;;;;;;5.30;3.05;;;;;;;2.50;100.00;92539.72;5095663;28;20152;-82
2021/12/04 00:13:49;;;;;;;4.53;2.78;;;;;;;2.22;100.00;92509.16;5089822;28;20044;-82
2021/12/04 00:16:16;;;;;;;5.07;3.25;;;;;;;2.35;100.00;92534.66;5077628;28;20051;-82
2021/12/04 00:18:43;;;;;;;3.83;3.00;;;;;;;2.36;100.00;92548.13;5069256;28;20056;-82
2021/12/04 00:21:11;;;;;;;5.38;2.95;;;;;;;2.14;100.00;92532.84;5068269;28;20055;-83
2021/12/04 00:23:38;;;;;;;4.75;3.33;;;;;;;2.12;100.00;92547.41;5069027;28;20094;-82
2021/12/04 00:26:05;;;;;;;6.80;3.20;;;;;;;2.05;100.00;92542.28;5069195;28;20052;-82
2021/12/04 00:28:32;;;;;;;5.40;3.53;;;;;;;2.10;100.00;92555.22;5069141;28;20056;-82
2021/12/04 00:31:04;;;;;;;6.22;3.67;;;;;;;2.18;100.00;92544.19;5069227;28;20055;-83
2021/12/04 00:33:32;;;;;;;7.80;3.38;;;;;;;2.25;100.00;92546.81;5069802;28;20125;-81
2021/12/04 00:36:01;;;;;;;6.28;3.90;;;;;;;2.31;100.00;92540.25;5069780;28;20139;-82
2021/12/04 00:49:24;;;;;;;4.70;3.70;;;;;;;2.48;100.00;92536.56;5068679;28;20063;-82
2021/12/04 00:51:54;;;;;;;4.38;3.35;;;;;;;2.46;100.00;92530.88;5068975;28;20450;-82
2021/12/04 00:54:25;;;;;;;4.55;3.45;;;;;;;2.49;100.00;92527.22;5069057;28;20122;-82
2021/12/04 00:56:52;;;;;;;4.95;3.38;;;;;;;2.31;100.00;92517.47;5068795;28;20052;-82
2021/12/04 00:59:20;;;;;;;5.72;3.15;;;;;;;2.32;100.00;92524.09;5068963;28;20045;-82
2021/12/04 01:01:47;;;;;;;10.60;3.58;;;;;;;2.34;100.00;92506.94;5068596;28;20470;-83
2021/12/04 01:04:15;;;;;;;4.68;3.70;;;;;;;2.42;100.00;92517.00;5069046;28;20070;-82
2021/12/04 01:06:42;;;;;;;4.95;3.47;;;;;;;2.56;100.00;92512.09;5068937;28;20681;-82
2021/12/04 01:09:12;;;;;;;5.80;3.70;;;;;;;2.42;100.00;92488.31;5068490;28;20082;-83
2021/12/04 01:11:42;;;;;;;6.18;4.03;;;;;;;2.49;100.00;92512.00;5068575;28;20045;-82
2021/12/04 01:14:11;;;;;;;6.70;3.85;;;;;;;2.39;100.00;92495.34;5069497;28;20044;-82
2021/12/04 01:16:38;;;;;;;4.72;3.03;;;;;;;2.29;100.00;92494.03;5072252;28;20051;-83
2021/12/04 01:19:05;;;;;;;4.05;3.20;;;;;;;2.05;100.00;92475.59;5072158;28;20052;-83
2021/12/04 01:21:32;;;;;;;5.85;4.30;;;;;;;2.05;100.00;92473.88;5072538;28;20049;-82
2021/12/04 01:23:59;;;;;;;4.78;3.60;;;;;;;2.11;100.00;92482.50;5072494;28;20045;-82
2021/12/04 01:26:26;;;;;;;5.30;4.05;;;;;;;2.08;100.00;92483.63;5071932;28;20044;-83
2021/12/04 01:28:55;;;;;;;5.40;3.97;;;;;;;1.94;100.00;92481.91;5072161;28;20484;-82
2021/12/04 01:31:22;;;;;;;6.90;4.45;;;;;;;1.81;100.00;92462.25;5072259;28;20049;-83
2021/12/04 01:33:48;;;;;;;8.15;4.80;;;;;;;2.04;100.00;92474.81;5072072;28;20057;-82
2021/12/04 01:36:15;;;;;;;8.18;4.60;;;;;;;2.06;100.00;92472.09;5072190;28;20048;-82
2021/12/04 01:38:43;;;;;;;7.05;4.80;;;;;;;2.00;100.00;92456.66;5072617;28;20099;-82
2021/12/04 01:41:10;;;;;;;8.63;6.22;;;;;;;2.05;100.00;92468.81;5072372;28;20056;-82
2021/12/04 01:43:36;;;;;;;9.73;6.60;;;;;;;2.22;100.00;92491.44;5072636;28;20097;-82
2021/12/04 01:46:05;;;;;;;9.07;6.72;;;;;;;2.42;100.00;92506.88;5072553;28;20056;-82
2021/12/04 01:48:32;;;;;;;15.40;8.65;;;;;;;2.42;100.00;92498.47;5071827;28;20044;-81
2021/12/04 01:50:59;;;;;;;13.65;8.77;;;;;;;2.31;100.00;92489.56;5071815;28;20130;-82
2021/12/04 01:53:27;;;;;;;12.50;9.10;;;;;;;2.57;100.00;92516.97;5071722;28;20045;-81
2021/12/04 01:55:57;;;;;;;13.48;7.97;;;;;;;2.72;100.00;92516.19;5071924;28;20163;-82
2021/12/04 01:58:25;;;;;;;7.15;5.95;;;;;;;2.69;100.00;92511.44;5071507;28;20270;-81
2021/12/04 02:00:53;;;;;;;16.38;9.25;;;;;;;2.44;100.00;92501.63;5071509;28;20052;-82
2021/12/04 02:03:23;;;;;;;9.30;6.18;;;;;;;2.54;100.00;92512.25;5071822;28;20451;-82
2021/12/04 02:05:51;;;;;;;10.70;6.45;;;;;;;2.47;100.00;92491.13;5071387;28;20500;-82
2021/12/04 02:08:20;;;;;;;11.27;6.55;;;;;;;2.58;100.00;92513.47;5071320;28;20055;-83
2021/12/04 02:10:49;;;;;;;12.52;6.80;;;;;;;2.47;100.00;92506.31;5071152;28;20051;-83
2021/12/04 02:13:17;;;;;;;13.40;8.05;;;;;;;2.52;100.00;92516.72;5071314;28;20044;-82
2021/12/04 02:15:45;;;;;;;12.05;8.15;;;;;;;2.54;100.00;92523.19;5071527;28;20400;-82
2021/12/04 02:18:13;;;;;;;8.45;5.85;;;;;;;2.34;100.00;92486.69;5071132;28;20052;-83
2021/12/04 02:20:42;;;;;;;9.50;6.40;;;;;;;2.50;100.00;92498.38;5071122;28;20048;-82
2021/12/04 02:23:10;;;;;;;8.52;6.22;;;;;;;2.29;100.00;92499.88;5071418;28;20135;-83
2021/12/04 02:25:38;;;;;;;8.93;6.07;;;;;;;2.13;100.00;92500.88;5070927;28;20045;-83
2021/12/04 02:28:07;;;;;;;8.63;6.40;;;;;;;2.05;100.00;92489.06;5071131;28;20052;-83
2021/12/04 02:30:37;;;;;;;10.00;7.60;;;;;;;2.04;100.00;92501.91;5071009;28;20514;-82
2021/12/04 02:33:11;;;;;;;9.63;7.25;;;;;;;1.86;100.00;92486.09;5071035;28;20545;-82
2021/12/04 02:35:38;;;;;;;14.60;9.57;;;;;;;1.85;100.00;92479.44;5070810;28;20041;-83
2021/12/04 02:38:06;;;;;;;12.23;8.30;;;;;;;2.04;100.00;92496.84;5070979;28;20048;-82
2021/12/04 02:40:33;;;;;;;9.82;6.68;;;;;;;2.04;100.00;92506.97;5071267;28;20072;-82
2021/12/04 02:43:00;;;;;;;9.85;5.90;;;;;;;1.91;100.00;92497.44;5071064;28;20049;-82
2021/12/04 02:45:27;;;;;;;8.25;6.30;;;;;;;1.72;100.00;92472.44;5070466;28;20091;-83
2021/12/04 02:47:54;;;;;;;9.93;6.13;;;;;;;1.69;100.00;92469.50;5070584;28;20059;-82
2021/12/04 02:50:20;;;;;;;14.75;8.48;;;;;;;1.97;100.00;92502.59;5070414;28;20550;-83
2021/12/04 02:52:47;;;;;;;11.18;6.03;;;;;;;1.72;100.00;92485.13;5070895;28;20067;-83
2021/12/04 02:55:16;;;;;;;10.15;6.82;;;;;;;1.75;100.00;92480.69;5070480;28;20063;-82
2021/12/04 02:57:44;;;;;;;13.85;8.85;;;;;;;1.59;100.00;92490.75;5070512;28;20056;-82
2021/12/04 03:00:16;;;;;;;12.82;8.65;;;;;;;1.55;100.00;92459.19;5070689;28;20510;-82
2021/12/04 03:02:43;;;;;;;13.93;9.25;;;;;;;1.78;100.00;92491.25;5070552;28;20130;-82
2021/12/04 03:05:11;;;;;;;12.02;9.02;;;;;;;1.85;100.00;92487.06;5070575;28;20071;-81
2021/12/04 03:07:38;;;;;;;11.75;8.15;;;;;;;1.98;100.00;92473.78;5070198;28;20519;-82
2021/12/04 03:10:07;;;;;;;7.97;5.72;;;;;;;1.85;100.00;92466.78;5069976;28;20052;-82
2021/12/04 03:12:36;;;;;;;8.25;5.45;;;;;;;1.78;100.00;92477.78;5070368;28;20045;-83
2021/12/04 03:15:04;;;;;;;8.13;5.55;;;;;;;1.85;100.00;92476.16;5069924;28;20044;-83
2021/12/04 03:17:31;;;;;;;8.02;5.55;;;;;;;1.68;100.00;92462.84;5069977;28;20048;-82
2021/12/04 03:19:58;;;;;;;49.35;24.58;;;;;;;1.77;100.00;92484.63;5070120;28;20048;-82
2021/12/04 03:22:25;;;;;;;10.27;7.60;;;;;;;1.79;100.00;92482.69;5069750;28;20094;-81
2021/12/04 03:24:54;;;;;;;7.85;5.60;;;;;;;1.31;100.00;92452.59;5070130;28;20053;-83
2021/12/04 03:27:21;;;;;;;8.57;6.68;;;;;;;1.55;100.00;92487.03;5069976;28;20143;-83
2021/12/04 03:29:55;;;;;;;8.32;6.15;;;;;;;1.35;100.00;92484.19;5069751;28;20098;-81
2021/12/04 03:32:51;;;;;;;9.88;7.45;;;;;;;1.35;100.00;92489.25;5069696;28;20053;-82
2021/12/04 03:35:24;;;;;;;13.32;8.40;;;;;;;1.29;100.00;92469.72;5069788;28;20049;-82
2021/12/04 03:40:52;;;;;;;;;;;;;;;1.60;100.00;92499.16;5070162;28;20058;-81
2021/12/04 03:43:19;;;;;;;15.73;8.85;;;;;;;1.81;100.00;92500.25;5069811;28;19921;-81
2021/12/04 03:45:53;;;;;;;14.88;8.75;;;;;;;1.89;100.00;92502.69;5069349;28;20051;-81
2021/12/04 03:48:49;;;;;;;13.80;8.43;;;;;;;1.78;100.00;92475.25;5069710;28;20130;-81
2021/12/04 03:51:16;;;;;;;14.93;9.32;;;;;;;1.80;100.00;92478.41;5069607;28;20049;-81
2021/12/04 03:53:43;;;;;;;13.90;9.02;;;;;;;1.99;100.00;92495.63;5069228;28;20090;-82
2021/12/04 03:56:11;;;;;;;10.30;7.20;;;;;;;1.82;100.00;92499.28;5069646;28;20056;-82
2021/12/04 03:58:38;;;;;;;12.75;8.25;;;;;;;1.98;100.00;92491.50;5069626;28;20049;-82
2021/12/04 04:01:07;;;;;;;10.75;7.15;;;;;;;1.99;100.00;92482.94;5069231;28;20048;-82
2021/12/04 04:03:34;;;;;;;12.77;7.20;;;;;;;2.13;100.00;92493.25;5069316;28;20044;-83
2021/12/04 04:06:00;;;;;;;12.98;7.85;;;;;;;2.05;100.00;92495.88;5069132;28;20052;-84
2021/12/04 04:08:27;;;;;;;9.48;6.38;;;;;;;1.75;100.00;92481.44;5069715;28;20048;-83
2021/12/04 04:10:54;;;;;;;12.05;7.25;;;;;;;1.80;100.00;92476.66;5069672;28;20044;-81
2021/12/04 04:13:21;;;;;;;12.30;7.68;;;;;;;1.93;100.00;92493.78;5069132;28;20049;-81
2021/12/04 04:15:48;;;;;;;9.05;6.78;;;;;;;1.82;100.00;92489.94;5069126;28;20052;-81
2021/12/04 04:18:17;;;;;;;11.35;7.90;;;;;;;1.73;100.00;92485.91;5069207;28;20500;-80
2021/12/04 04:20:44;;;;;;;11.15;7.60;;;;;;;1.78;100.00;92483.66;5068903;28;20052;-81
2021/12/04 04:23:11;;;;;;;18.85;11.43;;;;;;;1.91;100.00;92499.97;5069112;28;20491;-81
2021/12/04 04:25:38;;;;;;;11.45;8.00;;;;;;;1.56;100.00;92491.13;5069344;28;20057;-82
2021/12/04 04:28:05;;;;;;;12.65;9.18;;;;;;;1.60;100.00;92497.44;5068718;28;20535;-81
2021/12/04 04:30:32;;;;;;;17.00;10.02;;;;;;;1.51;100.00;92482.47;5069219;28;20102;-81
2021/12/04 04:33:00;;;;;;;12.63;9.05;;;;;;;1.56;100.00;92498.72;5069244;28;20056;-82
2021/12/04 04:35:31;;;;;;;13.10;9.20;;;;;;;1.55;100.00;92493.81;5069511;28;20050;-83
2021/12/04 04:38:05;;;;;;;14.30;10.23;;;;;;;1.69;100.00;92504.94;5069319;28;20040;-83
2021/12/04 05:00:04;;;;;;;15.55;10.70;;;;;;;1.76;100.00;92535.41;5073044;28;20055;-82
2021/12/04 05:10:53;;;;;;;11.38;8.07;;;;;;;1.75;100.00;92532.09;5072388;28;20135;-81
2021/12/04 05:13:21;;;;;;;9.63;6.22;;;;;;;1.57;100.00;92529.91;5092718;28;20051;-82
2021/12/04 05:15:57;;;;;;;9.35;6.80;;;;;;;1.58;100.00;92529.69;5092982;28;20051;-81
2021/12/04 05:18:34;;;;;;;14.27;8.40;;;;;;;1.59;100.00;92513.56;5092769;28;20048;-82
2021/12/04 05:21:06;;;;;;;11.05;7.10;;;;;;;1.69;100.00;92510.00;5086074;28;20043;-81
2021/12/04 05:23:38;;;;;;;11.30;7.43;;;;;;;1.84;100.00;92520.13;5082417;28;20133;-81
2021/12/04 05:26:07;;;;;;;12.82;7.95;;;;;;;2.03;100.00;92534.03;5082584;28;20040;-81
2021/12/04 05:28:34;;;;;;;36.22;18.90;;;;;;;2.12;100.00;92533.00;5082297;28;20059;-81
2021/12/04 05:31:02;;;;;;;19.15;11.60;;;;;;;2.19;100.00;92545.78;5082925;28;20044;-81
2021/12/04 05:33:29;;;;;;;12.73;8.73;;;;;;;1.99;100.00;92536.13;5087644;28;20051;-81
2021/12/04 05:35:56;;;;;;;22.25;12.90;;;;;;;1.70;100.00;92512.34;5094479;28;20052;-83
2021/12/04 05:38:24;;;;;;;20.83;11.38;;;;;;;1.90;100.00;92538.94;5097540;28;20047;-83
2021/12/04 05:40:53;;;;;;;14.30;10.07;;;;;;;1.84;100.00;92535.34;5098027;28;20058;-82
2021/12/04 05:43:22;;;;;;;11.20;7.88;;;;;;;1.90;100.00;92531.34;5098114;28;20048;-82
2021/12/04 05:45:54;;;;;;;13.82;9.07;;;;;;;1.92;100.00;92529.41;5098252;28;20109;-81
2021/12/04 05:48:26;;;;;;;16.77;9.32;;;;;;;1.94;100.00;92514.84;5097742;28;20059;-83
2021/12/04 05:53:54;;;;;;;15.00;9.80;;;;;;;1.88;100.00;92521.38;5070389;28;20051;-84
2021/12/04 05:56:23;;;;;;;16.52;10.43;;;;;;;1.95;100.00;92521.47;5097776;28;20540;-83
2021/12/04 05:58:51;;;;;;;16.17;11.02;;;;;;;2.06;100.00;92528.63;5093163;28;20052;-84
2021/12/04 06:01:19;;;;;;;21.00;13.02;;;;;;;1.69;100.00;92492.28;5095535;28;20051;-84
2021/12/04 06:03:46;;;;;;;18.70;11.60;;;;;;;1.66;100.00;92503.53;5097691;28;20048;-84
2021/12/04 06:06:13;;;;;;;20.55;13.25;;;;;;;1.77;100.00;92544.59;5097519;28;20048;-84
2021/12/04 06:08:40;;;;;;;21.05;12.68;;;;;;;1.73;100.00;92537.31;5097194;28;20039;-83
2021/12/04 06:11:06;;;;;;;18.58;11.35;;;;;;;1.64;100.00;92542.63;5094129;28;20051;-83
2021/12/04 06:13:36;;;;;;;18.95;12.02;;;;;;;1.68;100.00;92534.53;5096775;28;20507;-83
2021/12/04 06:16:03;;;;;;;20.63;12.50;;;;;;;1.58;100.00;92521.34;5094781;28;20623;-83
2021/12/04 06:18:31;;;;;;;20.45;11.27;;;;;;;1.66;100.00;92549.09;5097763;28;20050;-83
2021/12/04 06:23:43;;;;;;;15.70;10.10;;;;;;;1.61;100.00;92551.34;5097487;28;20248;-82
2021/12/04 06:26:10;;;;;;;17.42;10.07;;;;;;;1.71;100.00;92544.31;5097228;28;20059;-83
2021/12/04 06:28:38;;;;;;;17.05;10.88;;;;;;;1.88;100.00;92546.69;5097267;28;20056;-82
2021/12/04 06:31:07;;;;;;;16.48;9.82;;;;;;;1.85;100.00;92550.34;5095406;28;20504;-81
2021/12/04 06:33:34;;;;;;;20.27;12.85;;;;;;;1.83;100.00;92552.28;5097206;28;20097;-83
2021/12/04 06:36:01;;;;;;;67.18;29.27;;;;;;;1.81;100.00;92566.09;5097207;28;20131;-83
2021/12/04 06:38:28;;;;;;;24.65;13.30;;;;;;;1.80;100.00;92572.09;5097278;28;20044;-82
2021/12/04 06:40:55;;;;;;;15.50;9.80;;;;;;;1.52;100.00;92553.16;5097106;28;20048;-82
2021/12/04 06:43:23;;;;;;;14.05;9.65;;;;;;;1.53;100.00;92543.84;5096873;28;20384;-82
2021/12/04 06:45:57;;;;;;;22.05;12.88;;;;;;;1.65;100.00;92562.72;5096852;28;20039;-82
2021/12/04 06:48:27;;;;;;;27.00;17.35;;;;;;;1.46;100.00;92529.34;5096646;28;20036;-83
2021/12/04 06:50:57;;;;;;;15.85;10.88;;;;;;;1.64;100.00;92560.34;5096795;28;20384;-83
2021/12/04 06:53:27;;;;;;;21.13;13.75;;;;;;;1.82;100.00;92570.19;5095794;28;20126;-82
2021/12/04 06:55:55;;;;;;;41.35;19.60;;;;;;;1.82;100.00;92575.25;5095366;28;20040;-82
2021/12/04 06:58:23;;;;;;;33.00;16.08;;;;;;;1.83;100.00;92581.88;5095297;28;20139;-82
2021/12/04 07:00:52;;;;;;;31.02;14.73;;;;;;;1.84;100.00;92575.84;5094061;28;20067;-83
2021/12/04 07:03:19;;;;;;;30.10;15.30;;;;;;;1.80;100.00;92574.66;5095262;28;20127;-84
2021/12/04 07:05:46;;;;;;;38.50;18.42;;;;;;;1.69;100.00;92585.94;5094612;28;20105;-82
2021/12/04 07:08:14;;;;;;;45.17;19.75;;;;;;;1.78;100.00;92592.53;5094854;28;20050;-83
2021/12/04 07:10:41;;;;;;;55.13;23.15;;;;;;;1.76;100.00;92588.59;5094293;28;20051;-86
2021/12/04 07:13:07;;;;;;;28.92;14.15;;;;;;;1.58;100.00;92579.56;5091544;28;20040;-82
2021/12/04 07:15:35;;;;;;;24.35;13.85;;;;;;;1.41;100.00;92594.88;5095609;28;20514;-83
2021/12/04 07:18:04;;;;;;;19.80;13.52;;;;;;;1.49;100.00;92586.44;5093419;28;20056;-83
2021/12/04 07:20:31;;;;;;;17.80;11.85;;;;;;;1.59;100.00;92594.56;5093882;28;20036;-82
2021/12/04 07:22:59;;;;;;;20.65;13.25;;;;;;;1.78;100.00;92605.19;5094264;28;20059;-82
2021/12/04 07:25:26;;;;;;;15.98;10.32;;;;;;;1.78;100.00;92594.25;5093637;28;20052;-82
2021/12/04 07:27:53;;;;;;;16.40;10.68;;;;;;;1.83;100.00;92594.53;5093903;28;20214;-82
2021/12/04 07:30:21;;;;;;;15.80;10.90;;;;;;;1.81;100.00;92564.31;5095313;28;20044;-82
2021/12/04 07:32:48;;;;;;;17.92;12.00;;;;;;;2.02;100.00;92572.22;5094987;28;20044;-82
2021/12/04 07:35:16;;;;;;;16.63;11.68;;;;;;;2.26;100.00;92577.03;5095246;28;20044;-82
2021/12/04 07:37:44;;;;;;;17.77;12.00;;;;;;;2.44;100.00;92573.38;5095678;28;20063;-82
2021/12/04 07:40:12;;;;;;;18.38;10.75;;;;;;;2.53;100.00;92576.59;5095969;28;20067;-82
2021/12/04 07:42:39;;;;;;;20.88;13.40;;;;;;;2.60;100.00;92567.31;5095914;28;20116;-81
2021/12/04 07:45:08;;;;;;;20.90;14.20;;;;;;;2.58;100.00;92551.50;5095489;28;20498;-82
2021/12/04 07:47:35;;;;;;;20.63;12.52;;;;;;;2.70;100.00;92567.06;5094757;28;20048;-81
2021/12/04 07:50:03;;;;;;;22.75;13.45;;;;;;;2.69;100.00;92539.34;5095667;28;20065;-82
2021/12/04 07:52:31;;;;;;;18.48;12.07;;;;;;;2.87;100.00;92546.56;5095488;28;20044;-82
2021/12/04 07:54:58;;;;;;;20.80;12.23;;;;;;;2.93;100.00;92541.56;5096043;28;20044;-81
2021/12/04 07:57:26;;;;;;;16.63;11.80;;;;;;;3.06;100.00;92542.69;5095440;28;20658;-82
2021/12/04 07:59:53;;;;;;;19.75;13.07;;;;;;;3.19;100.00;92536.91;5094340;28;20134;-83
2021/12/04 08:02:20;;;;;;;30.48;20.73;;;;;;;3.23;100.00;92522.13;5094365;28;20055;-82
2021/12/04 08:04:47;;;;;;;24.17;16.30;;;;;;;3.45;100.00;92535.59;5094004;28;20040;-82
2021/12/04 08:07:14;;;;;;;22.35;17.95;;;;;;;3.54;100.00;92539.59;5095497;28;20888;-82
2021/12/04 08:09:42;;;;;;;20.73;13.63;;;;;;;3.61;100.00;92534.53;5095503;28;20043;-82
2021/12/04 08:12:10;;;;;;;21.25;15.13;;;;;;;3.73;100.00;92529.75;5093955;28;20504;-82
2021/12/04 08:14:38;;;;;;;18.00;12.57;;;;;;;3.81;100.00;92528.84;5092704;28;20047;-82
2021/12/04 08:17:05;;;;;;;18.52;12.70;;;;;;;3.87;100.00;92536.50;5093635;28;20044;-83
2021/12/04 08:19:32;;;;;;;20.00;12.38;;;;;;;3.98;100.00;92532.66;5095183;28;20056;-83
2021/12/04 08:21:59;;;;;;;23.65;15.73;;;;;;;4.06;100.00;92533.47;5089949;28;20049;-82
2021/12/04 08:24:26;;;;;;;20.40;13.00;;;;;;;4.11;100.00;92538.78;5092801;28;20044;-83
2021/12/04 08:26:54;;;;;;;20.52;13.45;;;;;;;4.13;100.00;92534.34;5093081;28;20055;-82
2021/12/04 08:29:21;;;;;;;23.55;14.73;;;;;;;4.21;100.00;92544.34;5095030;28;20047;-82
2021/12/04 08:31:48;;;;;;;23.25;15.75;;;;;;;4.16;100.00;92520.47;5094749;28;20056;-82
2021/12/04 08:34:16;;;;;;;21.80;16.48;;;;;;;4.28;100.00;92529.94;5094978;28;20499;-82
2021/12/04 08:36:43;;;;;;;24.42;17.33;;;;;;;4.35;100.00;92526.63;5094173;28;20059;-82
2021/12/04 08:39:10;;;;;;;22.23;15.45;;;;;;;4.45;100.00;92532.16;5096168;28;20044;-82
2021/12/04 08:41:36;;;;;;;23.70;14.45;;;;;;;4.48;100.00;92526.69;5094678;28;20064;-82
2021/12/04 08:44:05;;;;;;;23.45;14.95;;;;;;;4.51;100.00;92525.50;5094208;28;20180;-82
2021/12/04 08:46:34;;;;;;;20.73;14.38;;;;;;;4.54;100.00;92523.38;5094952;28;20403;-83
2021/12/04 08:49:03;;;;;;;18.70;13.00;;;;;;;4.58;100.00;92513.59;5095142;28;20047;-82
2021/12/04 08:51:30;;;;;;;14.30;10.05;;;;;;;4.50;100.00;92506.91;5091718;28;20077;-82
2021/12/04 08:53:57;;;;;;;19.10;12.40;;;;;;;4.60;100.00;92510.88;5093116;28;20108;-82
2021/12/04 08:56:25;;;;;;;11.38;8.18;;;;;;;4.12;100.00;92505.56;5093905;28;20048;-82
2021/12/04 08:58:52;;;;;;;13.70;9.10;;;;;;;4.35;100.00;92509.59;5091316;28;20048;-82
2021/12/04 09:01:25;;;;;;;18.80;10.82;;;;;;;4.48;100.00;92516.50;5093880;28;20055;-83
2021/12/04 09:03:55;;;;;;;14.20;9.80;;;;;;;4.48;100.00;92497.91;5092644;28;20048;-82
2021/12/04 09:06:22;;;;;;;18.77;12.15;;;;;;;4.57;100.00;92485.84;5092939;28;20036;-82
2021/12/04 09:08:50;;;;;;;16.10;10.45;;;;;;;4.76;100.00;92510.53;5095036;28;20058;-82
2021/12/04 09:11:20;;;;;;;18.95;12.52;;;;;;;4.56;100.00;92479.94;5094366;28;20053;-82
2021/12/04 09:13:48;;;;;;;17.35;11.55;;;;;;;4.49;100.00;92522.38;5093187;28;20044;-83
2021/12/04 09:16:16;;;;;;;17.33;11.05;;;;;;;3.82;100.00;92520.25;5093796;28;20132;-82
2021/12/04 09:18:44;;;;;;;20.00;12.93;;;;;;;3.73;100.00;92530.56;5094719;28;20047;-82
2021/12/04 09:21:11;;;;;;;16.83;11.30;;;;;;;3.28;100.00;92522.38;5093989;28;20109;-82
2021/12/04 09:23:39;;;;;;;16.88;11.07;;;;;;;3.09;100.00;92529.59;5093862;28;20402;-82
2021/12/04 09:26:11;;;;;;;21.13;13.98;;;;;;;2.69;100.00;92522.38;5094659;28;20044;-82
2021/12/04 09:28:45;;;;;;;22.10;14.93;;;;;;;2.99;100.00;92539.25;5094236;28;20514;-82
2021/12/04 09:31:27;;;;;;;21.92;14.77;;;;;;;2.90;100.00;92524.16;5094494;28;20078;-82
2021/12/04 10:04:42;;;;;;;28.98;17.80;;;;;;;2.65;100.00;92486.44;5094767;28;20062;-81
2021/12/04 10:18:38;;;;;;;43.13;25.05;;;;;;;3.53;100.00;92522.78;5096738;28;20097;-82
2021/12/04 10:21:18;;;;;;;30.27;19.63;;;;;;;3.69;100.00;92505.69;5096909;28;20044;-81
2021/12/04 10:32:33;;;;;;;28.05;17.02;;;;;;;4.18;100.00;92460.84;5092214;28;20097;-81
2021/12/04 10:35:05;;;;;;;27.55;15.65;;;;;;;4.32;100.00;92471.84;5095913;28;20047;-82
2021/12/04 10:37:32;;;;;;;30.85;18.63;;;;;;;4.53;100.00;92481.13;5097438;28;20052;-81
2021/12/04 10:40:03;;;;;;;27.52;17.45;;;;;;;4.65;100.00;92483.91;5097542;28;20114;-81
2021/12/04 10:42:41;;;;;;;22.92;14.52;;;;;;;4.52;100.00;92450.78;5096714;28;20059;-81
2021/12/04 10:45:09;;;;;;;45.53;24.42;;;;;;;4.78;100.00;92467.88;5096423;28;20514;-82
2021/12/04 10:47:36;;;;;;;50.05;26.10;;;;;;;4.86;100.00;92455.97;5096686;28;20079;-82
2021/12/04 10:50:16;;;;;;;40.55;21.98;;;;;;;5.06;100.00;92474.56;5096626;28;20044;-82
2021/12/04 10:52:51;;;;;;;40.45;22.55;;;;;;;5.21;100.00;92471.88;5096590;28;20557;-82
2021/12/04 10:55:24;;;;;;;74.68;36.10;;;;;;;5.05;100.00;92429.75;5096857;28;20523;-82
2021/12/04 10:58:32;;;;;;;209.85;92.22;;;;;;;5.24;100.00;92442.69;5096618;28;20083;-82
2021/12/04 11:01:11;;;;;;;65.07;33.47;;;;;;;5.51;100.00;92478.31;5096347;28;20048;-82
2021/12/04 11:03:42;;;;;;;40.38;22.65;;;;;;;5.63;100.00;92475.97;5096363;28;20508;-82
2021/12/04 11:20:49;;;;;;;41.05;26.40;;;;;;;6.13;100.00;92482.41;5096161;28;20098;-82
2021/12/04 11:38:11;;;;;;;33.55;21.08;;;;;;;6.25;100.00;92478.25;5043001;28;20791;-83
2021/12/04 11:40:59;;;;;;;37.67;22.50;;;;;;;6.38;100.00;92491.94;5043198;28;20200;-83
2021/12/04 11:43:32;;;;;;;30.83;19.08;;;;;;;6.24;100.00;92463.94;5079604;28;20135;-85
2021/12/04 11:46:17;;;;;;;27.95;17.15;;;;;;;6.47;100.00;92485.63;5094742;28;20047;-83
2021/12/04 11:48:45;;;;;;;23.42;15.48;;;;;;;6.30;100.00;92456.47;5095367;28;20059;-83
2021/12/04 11:51:14;;;;;;;37.53;20.88;;;;;;;6.52;100.00;92485.03;5095686;28;20078;-83
2021/12/04 11:53:41;;;;;;;31.17;19.83;;;;;;;6.58;100.00;92475.78;5095264;28;20143;-84
2021/12/04 11:56:14;;;;;;;28.60;19.20;;;;;;;6.42;100.00;92485.47;5095519;28;20444;-84
2021/12/04 11:58:44;;;;;;;27.92;18.75;;;;;;;6.38;100.00;92471.53;5094706;28;20044;-84
2021/12/04 12:01:28;;;;;;;29.67;17.42;;;;;;;6.41;100.00;92468.59;5095165;28;20040;-84
2021/12/04 12:03:56;;;;;;;25.65;16.50;;;;;;;6.41;100.00;92464.28;5095526;28;20072;-83
2021/12/04 12:06:31;;;;;;;27.60;15.77;;;;;;;6.47;100.00;92475.44;5095221;28;20043;-84
2021/12/04 12:09:05;;;;;;;28.48;18.00;;;;;;;6.27;100.00;92466.09;5095421;28;20040;-83
2021/12/04 12:11:32;;;;;;;25.13;15.30;;;;;;;6.31;100.00;92468.22;5095249;28;20048;-84
2021/12/04 12:14:02;;;;;;;26.90;16.80;;;;;;;6.38;100.00;92462.13;5095282;28;20727;-83
2021/12/04 12:16:37;;;;;;;27.90;16.33;;;;;;;6.37;100.00;92467.41;5095520;28;20051;-83
2021/12/04 12:19:09;;;;;;;27.02;16.40;;;;;;;6.44;100.00;92467.41;5095018;28;20058;-83
2021/12/04 12:21:46;;;;;;;27.80;16.35;;;;;;;6.41;100.00;92455.84;5095303;28;20043;-83
2021/12/04 12:27:15;;;;;;;20.45;13.82;;;;;;;6.46;100.00;92471.31;5067824;28;20058;-82
2021/12/04 12:32:53;;;;;;;23.50;14.85;;;;;;;6.46;100.00;92465.44;5095000;28;20081;-82
2021/12/04 12:38:15;;;;;;;37.97;21.52;;;;;;;6.44;100.00;92434.25;5095021;28;20104;-82
2021/12/04 12:40:43;;;;;;;36.80;23.05;;;;;;;6.64;100.00;92455.34;5095055;28;20085;-83
2021/12/04 12:43:13;;;;;;;28.13;17.15;;;;;;;6.73;100.00;92463.56;5094962;28;20051;-82
2021/12/04 12:45:40;;;;;;;30.27;16.30;;;;;;;6.70;100.00;92453.75;5090813;28;20048;-83
2021/12/04 12:48:10;;;;;;;25.20;14.70;;;;;;;6.79;100.00;92457.63;5093097;28;20044;-83
2021/12/04 12:50:42;;;;;;;19.95;11.93;;;;;;;6.79;100.00;92455.06;5094967;28;20150;-83
2021/12/04 12:53:12;;;;;;;22.35;14.13;;;;;;;6.72;100.00;92449.22;5097075;28;20130;-83
2021/12/04 12:55:41;;;;;;;14.30;8.88;;;;;;;6.81;100.00;92459.97;5095195;28;20048;-82
2021/12/04 12:58:18;;;;;;;17.20;11.20;;;;;;;6.90;100.00;92465.63;5094843;28;20051;-82
2021/12/04 13:11:57;;;;;;;12.43;8.02;;;;;;;6.81;100.00;92444.66;5098484;28;20210;-82
2021/12/04 13:14:27;;;;;;;14.10;7.93;;;;;;;6.98;100.00;92460.25;5098445;28;20044;-83
2021/12/04 13:17:01;;;;;;;15.70;7.47;;;;;;;6.99;100.00;92456.72;5098657;28;20075;-83
2021/12/04 13:19:30;;;;;;;10.23;6.90;;;;;;;6.95;100.00;92453.03;5098644;28;20056;-84
2021/12/04 13:22:02;;;;;;;13.73;8.52;;;;;;;7.06;100.00;92462.59;5098474;28;20494;-84
2021/12/04 13:24:32;;;;;;;14.43;9.73;;;;;;;7.06;100.00;92452.38;5098287;28;20054;-84
2021/12/04 13:29:37;;;;;;;16.52;9.02;;;;;;;7.12;100.00;92460.97;5098476;28;20056;-84
2021/12/04 13:32:05;;;;;;;19.85;11.38;;;;;;;7.10;100.00;92460.41;5098014;28;20056;-84
2021/12/04 13:34:34;;;;;;;17.92;10.77;;;;;;;7.04;100.00;92456.88;5098592;28;20150;-84
2021/12/04 13:37:02;;;;;;;16.20;9.00;;;;;;;7.01;100.00;92461.63;5098207;28;20044;-84
2021/12/04 13:39:29;;;;;;;15.85;9.30;;;;;;;6.80;100.00;92426.00;5098025;28;20491;-83
2021/12/04 13:41:56;;;;;;;14.52;8.70;;;;;;;6.93;100.00;92452.44;5097968;28;20044;-81
2021/12/04 13:44:26;;;;;;;15.55;8.55;;;;;;;7.00;100.00;92458.31;5097897;28;20518;-82
2021/12/04 13:46:56;;;;;;;15.07;7.97;;;;;;;7.01;100.00;92461.63;5097900;28;20044;-82
2021/12/04 13:49:32;;;;;;;17.70;7.68;;;;;;;7.00;100.00;92460.88;5097667;28;20490;-84
2021/12/04 13:52:03;;;;;;;12.30;7.57;;;;;;;6.95;100.00;92464.00;5098169;28;20059;-84
2021/12/04 13:54:32;;;;;;;10.85;6.53;;;;;;;6.89;100.00;92451.31;5097849;28;20093;-84
2021/12/04 13:56:59;;;;;;;12.00;6.75;;;;;;;6.65;100.00;92407.63;5097971;28;20047;-84
2021/12/04 13:59:28;;;;;;;12.05;6.00;;;;;;;6.91;100.00;92460.28;5097864;28;20442;-82
2021/12/04 14:01:56;;;;;;;10.15;7.25;;;;;;;6.90;100.00;92452.88;5097656;28;20550;-84
2021/12/04 14:04:23;;;;;;;30.63;13.65;;;;;;;6.85;100.00;92450.91;5097817;28;20397;-81